createdAt,value
2022-12-15T00:00:15.318Z,31.53
2022-12-15T00:03:00.174Z,29.77
2022-12-15T00:05:49.939Z,28.00
2022-12-15T00:08:34.991Z,29.40
2022-12-15T00:11:20.869Z,26.60
2022-12-15T00:14:05.519Z,26.73
2022-12-15T00:16:50.897Z,27.23
2022-12-15T00:19:35.520Z,27.43
2022-12-15T00:22:20.252Z,29.47
2022-12-15T00:25:05.026Z,26.83
2022-12-15T00:27:49.737Z,26.53
2022-12-15T00:30:34.545Z,26.53
2022-12-15T00:33:24.740Z,26.73
2022-12-15T00:36:09.565Z,26.87
2022-12-15T00:38:44.839Z,25.33
2022-12-15T00:41:12.966Z,25.70
2022-12-15T00:43:39.367Z,25.93
2022-12-15T00:46:24.527Z,27.80
2022-12-15T00:48:50.944Z,26.77
2022-12-15T00:51:17.663Z,28.10
2022-12-15T00:54:04.068Z,26.27
2022-12-15T00:56:49.295Z,25.80
2022-12-15T00:59:34.970Z,27.77
2022-12-15T01:02:20.903Z,25.87
2022-12-15T01:05:06.326Z,24.93
2022-12-15T01:07:51.632Z,25.30
2022-12-15T01:10:37.833Z,26.10
2022-12-15T01:13:23.646Z,25.90
2022-12-15T01:16:08.449Z,26.70
2022-12-15T01:18:53.431Z,25.70
2022-12-15T01:21:24.328Z,26.23
2022-12-15T01:23:51.879Z,25.47
2022-12-15T01:26:18.191Z,24.70
2022-12-15T01:28:44.498Z,26.77
2022-12-15T01:31:12.177Z,24.83
2022-12-15T01:33:39.740Z,26.27
2022-12-15T01:36:06.339Z,24.87
2022-12-15T01:38:32.712Z,27.27
2022-12-15T01:41:02.467Z,25.27
2022-12-15T01:43:35.383Z,24.83
2022-12-15T01:46:05.655Z,24.40
2022-12-15T01:48:40.201Z,25.00
2022-12-15T01:51:34.147Z,26.30
2022-12-15T01:54:08.154Z,25.43
2022-12-15T01:56:42.315Z,25.97
2022-12-15T01:59:15.000Z,25.60
2022-12-15T02:01:41.511Z,26.60
2022-12-15T02:04:10.180Z,25.87
2022-12-15T02:06:36.506Z,25.73
2022-12-15T02:09:04.278Z,27.57
2022-12-15T02:11:40.207Z,25.60
2022-12-15T02:14:09.155Z,25.43
2022-12-15T02:16:57.146Z,25.90
2022-12-15T02:19:41.022Z,26.13
2022-12-15T02:22:24.282Z,24.50
2022-12-15T02:25:15.530Z,24.70
2022-12-15T02:27:54.275Z,24.87
2022-12-15T02:30:29.767Z,26.40
2022-12-15T02:33:29.512Z,23.83
2022-12-15T02:35:59.790Z,25.13
2022-12-15T02:38:35.512Z,24.57
2022-12-15T02:41:04.287Z,24.13
2022-12-15T02:43:35.721Z,26.50
2022-12-15T02:46:17.475Z,23.90
2022-12-15T02:48:59.832Z,25.37
2022-12-15T02:51:55.788Z,23.27
2022-12-15T02:54:34.741Z,23.50
2022-12-15T02:57:23.957Z,25.13
2022-12-15T02:59:58.075Z,26.10
2022-12-15T03:02:28.702Z,25.30
2022-12-15T03:04:55.645Z,25.00
2022-12-15T03:07:24.707Z,24.97
2022-12-15T03:09:51.955Z,25.07
2022-12-15T03:12:18.262Z,24.43
2022-12-15T03:14:44.558Z,25.93
2022-12-15T03:17:10.859Z,25.77
2022-12-15T03:19:37.169Z,24.17
2022-12-15T03:22:04.182Z,25.30
2022-12-15T03:24:30.552Z,24.33
2022-12-15T03:26:56.855Z,24.23
2022-12-15T03:29:23.264Z,23.40
2022-12-15T03:31:50.168Z,23.87
2022-12-15T03:34:17.014Z,25.20
2022-12-15T03:36:43.555Z,26.30
2022-12-15T03:39:10.103Z,26.87
2022-12-15T03:41:36.408Z,27.40
2022-12-15T03:44:02.992Z,26.20
2022-12-15T03:46:29.402Z,25.17
2022-12-15T03:48:55.825Z,26.17
2022-12-15T03:51:22.129Z,24.80
2022-12-15T03:53:49.201Z,23.37
2022-12-15T03:56:16.612Z,24.67
2022-12-15T03:58:42.964Z,25.67
2022-12-15T04:01:22.944Z,23.83
2022-12-15T04:03:49.459Z,23.80
2022-12-15T04:06:15.801Z,23.83
2022-12-15T04:08:42.139Z,23.40
2022-12-15T04:11:08.425Z,24.33
2022-12-15T04:13:34.920Z,23.50
2022-12-15T04:16:02.664Z,26.40
2022-12-15T04:18:29.043Z,24.73
2022-12-15T04:20:55.420Z,33.73
2022-12-15T04:23:21.980Z,33.57
2022-12-15T04:26:07.180Z,31.07
2022-12-15T04:28:51.858Z,25.80
2022-12-15T04:31:44.681Z,25.17
2022-12-15T04:34:33.336Z,24.77
2022-12-15T04:37:18.124Z,23.40
2022-12-15T04:40:07.344Z,25.97
2022-12-15T04:42:53.719Z,23.67
2022-12-15T04:45:42.488Z,25.30
2022-12-15T04:48:28.035Z,25.10
2022-12-15T04:51:13.240Z,23.80
2022-12-15T04:53:58.562Z,23.47
2022-12-15T04:56:43.493Z,23.43
2022-12-15T04:59:28.315Z,23.67
2022-12-15T05:02:13.069Z,22.63
2022-12-15T05:04:58.182Z,22.67
2022-12-15T05:07:43.903Z,24.97
2022-12-15T05:10:29.228Z,24.63
2022-12-15T05:13:13.984Z,25.87
2022-12-15T05:15:59.001Z,25.70
2022-12-15T05:18:43.977Z,27.80
2022-12-15T05:21:28.856Z,26.47
2022-12-15T05:24:13.605Z,25.80
2022-12-15T05:26:58.361Z,28.37
2022-12-15T05:29:42.999Z,27.77
2022-12-15T05:32:09.355Z,28.90
2022-12-15T05:34:37.209Z,29.40
2022-12-15T05:37:05.911Z,26.07
2022-12-15T05:39:32.583Z,28.07
2022-12-15T05:41:59.119Z,29.07
2022-12-15T05:44:26.602Z,27.73
2022-12-15T05:46:53.544Z,25.83
2022-12-15T05:49:20.440Z,27.57
2022-12-15T05:51:47.849Z,26.40
2022-12-15T05:54:17.267Z,26.53
2022-12-15T05:56:43.998Z,25.43
2022-12-15T05:59:10.803Z,27.97
2022-12-15T06:01:37.219Z,27.07
2022-12-15T06:04:04.269Z,26.60
2022-12-15T06:06:30.639Z,28.47
2022-12-15T06:08:57.200Z,27.43
2022-12-15T06:11:23.652Z,28.73
2022-12-15T06:13:50.244Z,28.00
2022-12-15T06:16:19.702Z,28.10
2022-12-15T06:18:50.412Z,27.53
2022-12-15T06:21:19.372Z,27.03
2022-12-15T06:23:46.734Z,27.13
2022-12-15T06:26:21.051Z,26.80
2022-12-15T06:28:48.685Z,28.50
2022-12-15T06:31:17.689Z,28.70
2022-12-15T06:33:44.194Z,27.97
2022-12-15T06:36:15.369Z,28.20
2022-12-15T06:38:45.145Z,27.97
2022-12-15T06:41:19.231Z,27.60
2022-12-15T06:43:52.995Z,27.30
2022-12-15T06:46:20.302Z,29.10
2022-12-15T06:48:47.431Z,27.37
2022-12-15T06:51:17.034Z,30.30
2022-12-15T06:53:48.628Z,27.23
2022-12-15T06:56:23.331Z,25.13
2022-12-15T06:58:54.370Z,27.67
2022-12-15T07:01:22.865Z,28.97
2022-12-15T07:03:49.454Z,26.93
2022-12-15T07:06:16.698Z,28.23
2022-12-15T07:08:44.983Z,28.10
2022-12-15T07:11:12.406Z,27.33
2022-12-15T07:13:39.839Z,30.50
2022-12-15T07:16:07.869Z,31.87
2022-12-15T07:18:34.320Z,30.40
2022-12-15T07:21:06.507Z,29.80
2022-12-15T07:23:53.684Z,28.73
2022-12-15T07:26:20.063Z,26.73
2022-12-15T07:28:46.385Z,29.37
2022-12-15T07:31:13.034Z,28.83
2022-12-15T07:33:39.683Z,29.60
2022-12-15T07:36:08.139Z,26.07
2022-12-15T07:38:35.338Z,27.33
2022-12-15T07:41:03.878Z,27.60
2022-12-15T07:43:31.595Z,28.67
2022-12-15T07:45:58.915Z,26.83
2022-12-15T07:48:27.011Z,27.97
2022-12-15T07:51:02.883Z,29.57
2022-12-15T07:53:34.987Z,28.07
2022-12-15T07:56:10.118Z,30.10
2022-12-15T07:58:37.365Z,25.37
2022-12-15T08:01:06.800Z,28.73
2022-12-15T08:03:34.457Z,28.20
2022-12-15T08:06:09.985Z,28.07
2022-12-15T08:08:36.804Z,26.40
2022-12-15T08:11:10.147Z,28.07
2022-12-15T08:14:02.087Z,26.70
2022-12-15T08:16:24.025Z,28.57
2022-12-15T08:18:50.441Z,27.60
2022-12-15T08:21:17.208Z,28.97
2022-12-15T08:23:43.518Z,28.27
2022-12-15T08:26:13.430Z,27.87
2022-12-15T08:28:40.989Z,27.60
2022-12-15T08:31:10.349Z,26.63
2022-12-15T08:33:37.719Z,26.23
2022-12-15T08:36:08.105Z,27.83
2022-12-15T08:38:36.229Z,28.23
2022-12-15T08:41:09.767Z,25.77
2022-12-15T08:43:41.120Z,27.37
2022-12-15T08:46:12.834Z,28.23
2022-12-15T08:48:39.505Z,29.33
2022-12-15T08:51:06.344Z,28.37
2022-12-15T08:53:32.771Z,28.70
2022-12-15T08:56:07.660Z,27.60
2022-12-15T08:58:34.413Z,27.20
2022-12-15T09:01:06.879Z,28.77
2022-12-15T09:03:34.954Z,28.20
2022-12-15T09:06:13.102Z,27.70
2022-12-15T09:08:39.661Z,29.93
2022-12-15T09:11:06.207Z,29.77
2022-12-15T09:13:33.161Z,28.67
2022-12-15T09:16:10.745Z,30.63
2022-12-15T09:18:37.857Z,28.93
2022-12-15T09:21:06.992Z,30.10
2022-12-15T09:23:35.493Z,31.67
2022-12-15T09:26:07.881Z,32.90
2022-12-15T09:28:34.571Z,30.77
2022-12-15T09:31:08.076Z,32.33
2022-12-15T09:33:35.185Z,31.93
2022-12-15T09:36:03.400Z,29.80
2022-12-15T09:38:30.459Z,31.97
2022-12-15T09:40:57.365Z,30.30
2022-12-15T09:43:35.767Z,30.87
2022-12-15T09:46:13.255Z,28.10
2022-12-15T09:48:45.183Z,32.37
2022-12-15T09:51:16.339Z,30.60
2022-12-15T09:53:54.863Z,29.43
2022-12-15T09:56:31.077Z,30.50
2022-12-15T09:59:05.226Z,31.03
2022-12-15T10:01:43.979Z,33.80
2022-12-15T10:04:37.690Z,31.30
2022-12-15T10:07:08.516Z,31.70
2022-12-15T10:09:37.195Z,30.60
2022-12-15T10:12:12.153Z,34.10
2022-12-15T10:14:43.974Z,30.40
2022-12-15T10:17:26.299Z,30.77
2022-12-15T10:20:20.597Z,30.40
2022-12-15T10:22:50.481Z,30.97
2022-12-15T10:25:29.830Z,33.20
2022-12-15T10:28:31.784Z,29.77
2022-12-15T10:31:02.231Z,33.07
2022-12-15T10:33:34.848Z,34.30
2022-12-15T10:36:01.981Z,34.87
2022-12-15T10:38:45.263Z,34.30
2022-12-15T10:41:14.361Z,34.63
2022-12-15T10:43:43.690Z,36.87
2022-12-15T10:46:15.000Z,37.00
2022-12-15T10:48:43.943Z,35.53
2022-12-15T10:51:32.932Z,33.93
2022-12-15T10:54:10.568Z,34.17
2022-12-15T10:56:53.365Z,37.00
2022-12-15T10:59:33.465Z,35.60
2022-12-15T11:02:24.255Z,35.87
2022-12-15T11:05:16.507Z,37.30
2022-12-15T11:07:49.456Z,37.60
2022-12-15T11:10:27.501Z,37.50
2022-12-15T11:13:05.760Z,36.63
2022-12-15T11:15:32.133Z,34.30
2022-12-15T11:18:14.811Z,35.93
2022-12-15T11:20:45.410Z,36.93
2022-12-15T11:23:33.177Z,36.97
2022-12-15T11:26:13.585Z,39.63
2022-12-15T11:28:50.915Z,38.17
2022-12-15T11:31:32.774Z,36.03
2022-12-15T11:33:59.313Z,37.97
2022-12-15T11:36:52.068Z,35.47
2022-12-15T11:39:37.428Z,33.73
2022-12-15T11:42:13.451Z,35.47
2022-12-15T11:45:09.319Z,37.33
2022-12-15T11:47:40.702Z,36.83
2022-12-15T11:50:38.207Z,34.40
2022-12-15T11:53:13.411Z,33.53
2022-12-15T11:55:42.947Z,35.77
2022-12-15T11:58:34.730Z,34.20
2022-12-15T12:01:28.704Z,34.20
2022-12-15T12:04:06.471Z,37.07
2022-12-15T12:06:43.023Z,34.17
2022-12-15T12:09:29.501Z,33.77
2022-12-15T12:12:14.430Z,35.40
2022-12-15T12:14:57.686Z,35.57
2022-12-15T12:17:43.146Z,33.17
2022-12-15T12:20:18.306Z,36.20
2022-12-15T12:23:05.452Z,34.57
2022-12-15T12:25:41.545Z,34.20
2022-12-15T12:28:17.719Z,36.00
2022-12-15T12:30:50.334Z,36.90
2022-12-15T12:33:47.173Z,37.83
2022-12-15T12:36:15.918Z,38.13
2022-12-15T12:38:50.803Z,39.03
2022-12-15T12:41:40.298Z,39.10
2022-12-15T12:44:24.514Z,36.90
2022-12-15T12:46:55.527Z,37.60
2022-12-15T12:49:33.196Z,33.47
2022-12-15T12:52:04.100Z,39.13
2022-12-15T12:54:36.510Z,36.37
2022-12-15T12:57:30.526Z,38.23
2022-12-15T13:00:01.102Z,38.20
2022-12-15T13:02:27.611Z,38.60
2022-12-15T13:04:57.241Z,38.80
2022-12-15T13:07:40.224Z,37.43
2022-12-15T13:10:09.539Z,38.47
2022-12-15T13:13:01.882Z,39.37
2022-12-15T13:15:31.253Z,38.00
2022-12-15T13:18:06.831Z,39.53
2022-12-15T13:20:36.176Z,37.80
2022-12-15T13:23:41.429Z,35.37
2022-12-15T13:26:08.348Z,37.27
2022-12-15T13:28:34.704Z,37.37
2022-12-15T13:31:16.745Z,38.33
2022-12-15T13:33:49.288Z,35.93
2022-12-15T13:36:39.975Z,37.53
2022-12-15T13:39:12.604Z,37.67
2022-12-15T13:42:07.565Z,37.00
2022-12-15T13:44:46.614Z,35.20
2022-12-15T13:47:29.823Z,34.97
2022-12-15T13:50:07.405Z,35.73
2022-12-15T13:53:17.226Z,33.33
2022-12-15T13:55:39.214Z,33.00
2022-12-15T13:58:16.311Z,34.33
2022-12-15T14:00:55.394Z,35.00
2022-12-15T14:03:23.427Z,34.90
2022-12-15T14:05:55.637Z,34.83
2022-12-15T14:08:24.471Z,35.67
2022-12-15T14:10:58.087Z,35.67
2022-12-15T14:13:33.658Z,37.80
2022-12-15T14:16:19.389Z,36.50
2022-12-15T14:19:04.050Z,39.83
2022-12-15T14:21:30.454Z,39.13
2022-12-15T14:24:28.887Z,41.30
2022-12-15T14:26:44.210Z,39.70
2022-12-15T14:29:12.888Z,40.73
2022-12-15T14:31:40.487Z,41.40
2022-12-15T14:34:13.843Z,38.87
2022-12-15T14:36:43.031Z,39.30
2022-12-15T14:39:32.953Z,39.93
2022-12-15T14:42:01.366Z,39.00
2022-12-15T14:44:37.153Z,40.87
2022-12-15T14:47:08.404Z,42.93
2022-12-15T14:49:42.532Z,42.17
2022-12-15T14:52:27.746Z,41.13
2022-12-15T14:54:57.341Z,42.13
2022-12-15T14:57:27.666Z,42.20
2022-12-15T14:59:54.524Z,41.60
2022-12-15T15:02:26.860Z,40.63
2022-12-15T15:04:59.581Z,40.63
2022-12-15T15:07:28.749Z,42.23
2022-12-15T15:09:55.532Z,39.63
2022-12-15T15:12:24.833Z,37.87
2022-12-15T15:14:58.979Z,36.97
2022-12-15T15:17:43.657Z,38.00
2022-12-15T15:20:21.531Z,38.07
2022-12-15T15:23:08.471Z,38.97
2022-12-15T15:25:56.438Z,35.40
2022-12-15T15:28:28.234Z,38.23
2022-12-15T15:30:57.792Z,40.67
2022-12-15T15:33:25.206Z,37.43
2022-12-15T15:35:55.261Z,38.17
2022-12-15T15:38:32.185Z,37.20
2022-12-15T15:41:14.715Z,41.37
2022-12-15T15:43:42.047Z,38.50
2022-12-15T15:46:13.038Z,40.60
2022-12-15T15:48:44.731Z,40.77
2022-12-15T15:51:11.162Z,41.97
2022-12-15T15:53:38.667Z,40.43
2022-12-15T15:56:07.063Z,42.47
2022-12-15T15:58:35.333Z,42.73
2022-12-15T16:01:04.765Z,40.37
2022-12-15T16:03:35.216Z,39.50
2022-12-15T16:06:06.383Z,37.67
2022-12-15T16:08:36.650Z,38.53
2022-12-15T16:11:03.170Z,37.30
2022-12-15T16:13:29.571Z,38.10
2022-12-15T16:15:56.129Z,37.43
2022-12-15T16:18:22.601Z,38.90
2022-12-15T16:20:51.522Z,39.67
2022-12-15T16:23:21.278Z,41.63
2022-12-15T16:25:52.730Z,40.80
2022-12-15T16:28:24.576Z,46.70
2022-12-15T16:30:51.100Z,44.40
2022-12-15T16:33:18.074Z,40.13
2022-12-15T16:35:47.245Z,41.07
2022-12-15T16:38:19.355Z,43.57
2022-12-15T16:40:45.847Z,40.87
2022-12-15T16:43:15.988Z,39.30
2022-12-15T16:45:47.155Z,40.80
2022-12-15T16:48:14.416Z,42.87
2022-12-15T16:50:43.557Z,43.37
2022-12-15T16:53:18.623Z,42.10
2022-12-15T16:55:45.381Z,44.00
2022-12-15T16:58:15.621Z,43.83
2022-12-15T17:00:42.695Z,43.83
2022-12-15T17:03:13.868Z,41.93
2022-12-15T17:05:41.844Z,45.13
2022-12-15T17:08:18.141Z,44.80
2022-12-15T17:10:45.986Z,40.67
2022-12-15T17:13:19.693Z,43.07
2022-12-15T17:15:46.666Z,40.13
2022-12-15T17:18:14.770Z,41.20
2022-12-15T17:20:42.151Z,41.20
2022-12-15T17:23:15.913Z,39.67
2022-12-15T17:28:33.212Z,42.57
2022-12-15T17:31:00.398Z,37.53
2022-12-15T17:33:29.789Z,37.77
2022-12-15T17:36:01.043Z,43.50
2022-12-15T17:38:27.790Z,45.97
2022-12-15T17:40:56.342Z,43.33
2022-12-15T17:43:28.149Z,44.10
2022-12-15T17:45:58.384Z,43.47
2022-12-15T17:48:25.223Z,42.90
2022-12-15T17:50:53.212Z,43.90
2022-12-15T17:53:22.114Z,39.03
2022-12-15T17:55:49.661Z,41.13
2022-12-15T17:58:21.612Z,43.23
2022-12-15T18:00:51.641Z,49.47
2022-12-15T18:03:19.133Z,42.07
2022-12-15T18:05:47.739Z,40.97
2022-12-15T18:08:17.681Z,43.57
2022-12-15T18:10:45.810Z,44.30
2022-12-15T18:13:18.618Z,44.40
2022-12-15T18:15:46.545Z,45.07
2022-12-15T18:18:13.890Z,43.33
2022-12-15T18:20:40.891Z,44.77
2022-12-15T18:23:16.235Z,43.93
2022-12-15T18:25:43.979Z,43.00
2022-12-15T18:28:27.690Z,43.60
2022-12-15T18:31:12.640Z,43.90
2022-12-15T18:33:39.043Z,42.20
2022-12-15T18:36:05.909Z,42.70
2022-12-15T18:38:32.287Z,44.80
2022-12-15T18:41:00.110Z,45.87
2022-12-15T18:43:31.035Z,44.30
2022-12-15T18:45:58.014Z,44.33
2022-12-15T18:48:25.400Z,45.53
2022-12-15T18:50:53.320Z,42.10
2022-12-15T18:53:32.399Z,43.27
2022-12-15T18:56:05.636Z,43.03
2022-12-15T18:58:34.763Z,44.30
2022-12-15T19:01:02.859Z,42.03
2022-12-15T19:03:30.723Z,43.37
2022-12-15T19:06:34.706Z,42.17
2022-12-15T19:09:07.529Z,40.80
2022-12-15T19:11:34.482Z,40.17
2022-12-15T19:14:03.023Z,39.73
2022-12-15T19:16:52.981Z,41.87
2022-12-15T19:19:38.081Z,41.93
2022-12-15T19:22:29.726Z,41.00
2022-12-15T19:24:56.125Z,40.57
2022-12-15T19:27:26.101Z,42.50
2022-12-15T19:29:54.153Z,40.17
2022-12-15T19:32:21.434Z,41.53
2022-12-15T19:34:47.896Z,41.73
2022-12-15T19:37:22.746Z,44.60
2022-12-15T19:39:49.528Z,41.77
2022-12-15T19:42:23.926Z,43.03
2022-12-15T19:44:50.248Z,42.63
2022-12-15T19:47:16.580Z,41.80
2022-12-15T19:49:43.386Z,40.30
2022-12-15T19:52:17.926Z,40.33
2022-12-15T19:54:47.014Z,41.83
2022-12-15T19:57:15.689Z,38.07
2022-12-15T19:59:42.127Z,39.63
2022-12-15T20:02:16.546Z,38.37
2022-12-15T20:04:43.324Z,40.73
2022-12-15T20:07:22.201Z,42.57
2022-12-15T20:09:48.551Z,40.53
2022-12-15T20:12:22.558Z,39.93
2022-12-15T20:14:48.983Z,38.50
2022-12-15T20:17:15.417Z,40.83
2022-12-15T20:19:42.055Z,38.23
2022-12-15T20:22:17.219Z,39.13
2022-12-15T20:24:45.210Z,38.20
2022-12-15T20:27:16.612Z,38.03
2022-12-15T20:29:43.932Z,39.10
2022-12-15T20:32:19.365Z,38.40
2022-12-15T20:34:46.471Z,37.93
2022-12-15T20:37:18.512Z,41.73
2022-12-15T20:39:44.901Z,39.23
2022-12-15T20:42:15.454Z,37.63
2022-12-15T20:44:41.911Z,41.30
2022-12-15T20:47:20.852Z,40.30
2022-12-15T20:49:49.610Z,39.97
2022-12-15T20:52:22.647Z,38.57
2022-12-15T20:54:50.825Z,38.83
2022-12-15T20:57:18.700Z,41.30
2022-12-15T20:59:45.416Z,44.60
2022-12-15T21:02:23.665Z,41.03
2022-12-15T21:04:50.935Z,39.13
2022-12-15T21:07:17.367Z,35.33
2022-12-15T21:09:43.743Z,40.33
2022-12-15T21:12:18.849Z,35.33
2022-12-15T21:14:45.684Z,37.90
2022-12-15T21:17:22.226Z,39.43
2022-12-15T21:19:49.423Z,38.87
2022-12-15T21:22:23.587Z,38.20
2022-12-15T21:24:52.996Z,38.00
2022-12-15T21:27:20.836Z,38.57
2022-12-15T21:29:52.264Z,38.63
2022-12-15T21:32:19.570Z,36.23
2022-12-15T21:34:45.936Z,37.00
2022-12-15T21:37:23.856Z,36.17
2022-12-15T21:39:50.616Z,35.40
2022-12-15T21:42:18.867Z,37.63
2022-12-15T21:44:45.492Z,40.40
2022-12-15T21:47:50.032Z,42.90
2022-12-15T21:50:19.154Z,41.33
2022-12-15T21:52:45.850Z,41.23
2022-12-15T21:55:16.947Z,39.53
2022-12-15T21:57:43.337Z,39.67
2022-12-15T22:00:12.055Z,37.77
2022-12-15T22:02:38.430Z,37.63
2022-12-15T22:05:16.425Z,37.07
2022-12-15T22:07:42.834Z,35.97
2022-12-15T22:10:09.338Z,36.97
2022-12-15T22:12:36.172Z,46.80
2022-12-15T22:15:03.622Z,48.27
2022-12-15T22:17:29.950Z,41.60
2022-12-15T22:19:56.297Z,41.00
2022-12-15T22:22:24.718Z,40.63
2022-12-15T22:24:54.685Z,46.33
2022-12-15T22:27:22.588Z,44.57
2022-12-15T22:29:50.210Z,45.07
2022-12-15T22:32:17.110Z,42.87
2022-12-15T22:34:43.554Z,41.93
2022-12-15T22:37:10.127Z,41.03
2022-12-15T22:39:36.448Z,41.50
2022-12-15T22:42:04.288Z,43.27
2022-12-15T22:44:33.526Z,44.10
2022-12-15T22:47:02.267Z,43.33
2022-12-15T22:49:35.709Z,40.47
2022-12-15T22:52:02.207Z,38.20
2022-12-15T22:54:30.712Z,41.70
2022-12-15T22:57:03.764Z,41.73
2022-12-15T22:59:42.641Z,40.77
2022-12-15T23:02:10.105Z,39.93
2022-12-15T23:04:36.525Z,41.23
2022-12-15T23:07:06.832Z,42.23
2022-12-15T23:09:33.243Z,43.67
2022-12-15T23:11:59.604Z,42.10
2022-12-15T23:14:44.539Z,41.97
2022-12-15T23:17:11.903Z,41.17
2022-12-15T23:19:43.431Z,37.17
2022-12-15T23:22:09.895Z,39.63
2022-12-15T23:24:36.219Z,39.63
2022-12-15T23:27:02.614Z,41.37
2022-12-15T23:29:29.002Z,40.37
2022-12-15T23:31:55.339Z,39.00
2022-12-15T23:34:21.675Z,37.87
2022-12-15T23:36:48.061Z,43.47
2022-12-15T23:39:14.523Z,44.13
2022-12-15T23:41:42.300Z,40.83
2022-12-15T23:44:08.726Z,43.47
2022-12-15T23:46:35.234Z,44.33
2022-12-15T23:49:01.594Z,44.70
2022-12-15T23:51:27.983Z,47.60
2022-12-15T23:53:54.629Z,45.70
2022-12-15T23:56:23.796Z,43.37
2022-12-15T23:58:57.689Z,45.27
